Westby, Montana
Current Conditions -  °F | °C
As of 1:35 AM on Thursday 27 Nov 2014 (Local Time) from KD50 Reporting Station
Overcast Overcast  
Wind Chill: -9°   Ceiling: 1500
Heat Index:   Visibility: 10mi
Dew Point:   Wind: 9mph
Humidity: 85%   Direction: 190°S
Pressure: 30.31"   Gusts: NA
Location:  48.87°N, 104.05°W
Report Text: KD50 270835Z AUTO 19008KT 10SM OVC015 M15/M17 A3031 RMK AO2
Loading
Personal Weather Stations






























Interactive Weather Map New forecast layout! Learn more

10-Day Weather Forecast

Advertisements
Track Severe Weather on mobile